Time;durP1;ratioP1;P1;durP2;ratioP2;P2;SDS_P1;SDS_P2;PMS_P1;PMS_P2;Temp;Humidity;BMP_temperature;BMP_pressure;BME280_temperature;BME280_humidity;BME280_pressure;Samples;Min_cycle;Max_cycle;Signal;HPM_P1;HPM_P2
2022/01/07 00:00:36;;;;;;;15.63;9.85;;;;;;;16.91;67.19;98725.75;3094407;28;20092;-61
2022/01/07 00:02:09;;;;;;;16.85;8.23;;;;;;;16.91;67.16;98731.09;3097103;28;20077;-59
2022/01/07 00:03:41;;;;;;;12.18;7.55;;;;;;;16.91;67.42;98737.31;3100355;28;20115;-60
2022/01/07 00:05:15;;;;;;;17.50;8.80;;;;;;;16.90;67.30;98730.28;3094733;28;20064;-61
2022/01/07 00:06:46;;;;;;;13.13;7.40;;;;;;;16.90;67.42;98734.81;3098315;28;20053;-60
2022/01/07 00:08:18;;;;;;;12.52;7.38;;;;;;;16.90;67.34;98740.16;3098627;28;20045;-59
2022/01/07 00:09:50;;;;;;;13.48;7.40;;;;;;;16.89;67.34;98738.53;3093422;28;20530;-60
2022/01/07 00:11:22;;;;;;;19.52;7.60;;;;;;;16.89;67.31;98741.19;3094933;28;20136;-61
2022/01/07 00:12:54;;;;;;;12.85;7.20;;;;;;;16.87;67.19;98738.69;3101454;28;20109;-59
2022/01/07 00:14:26;;;;;;;14.25;8.15;;;;;;;16.88;67.25;98742.19;3098285;28;20057;-61
2022/01/07 00:15:58;;;;;;;13.52;7.88;;;;;;;16.88;67.28;98747.56;3095760;28;20067;-61
2022/01/07 00:17:32;;;;;;;14.43;7.85;;;;;;;16.88;67.44;98753.78;3095905;28;20046;-60
2022/01/07 00:19:04;;;;;;;16.40;9.38;;;;;;;16.88;67.41;98747.56;3097708;28;20134;-60
2022/01/07 00:20:37;;;;;;;10.00;7.10;;;;;;;16.85;67.51;98746.09;3099201;28;20061;-60
2022/01/07 00:22:09;;;;;;;12.88;7.53;;;;;;;16.85;67.44;98751.44;3101015;28;20107;-61
2022/01/07 00:23:41;;;;;;;14.80;7.28;;;;;;;16.84;67.43;98751.66;3097307;28;20057;-61
2022/01/07 00:25:14;;;;;;;12.68;6.97;;;;;;;16.84;67.53;98759.69;3095448;28;20045;-60
2022/01/07 00:26:46;;;;;;;14.10;7.18;;;;;;;16.83;67.61;98750.00;3102111;28;20057;-61
2022/01/07 00:28:17;;;;;;;16.13;8.63;;;;;;;16.82;67.62;98748.31;3099078;28;20054;-60
2022/01/07 00:29:49;;;;;;;16.80;8.32;;;;;;;16.83;67.65;98752.69;3100613;28;20045;-61
2022/01/07 00:31:21;;;;;;;13.98;8.15;;;;;;;16.81;67.60;98752.03;3099999;28;20064;-61
2022/01/07 00:32:54;;;;;;;12.13;7.60;;;;;;;16.81;67.67;98752.84;3100026;28;20053;-60
2022/01/07 00:34:26;;;;;;;12.75;7.15;;;;;;;16.79;67.51;98759.41;3101507;28;20056;-61
2022/01/07 00:35:59;;;;;;;12.23;6.72;;;;;;;16.77;67.72;98753.41;3096907;28;20175;-60
2022/01/07 00:37:31;;;;;;;13.18;6.65;;;;;;;16.77;67.69;98750.72;3100974;28;20046;-60
2022/01/07 00:39:03;;;;;;;11.13;6.10;;;;;;;16.77;67.57;98762.31;3100353;28;20045;-61
2022/01/07 00:40:35;;;;;;;11.15;6.82;;;;;;;16.75;67.54;98753.59;3097571;28;20061;-60
2022/01/07 00:42:06;;;;;;;9.93;6.60;;;;;;;16.74;67.75;98762.63;3096478;28;20049;-61
2022/01/07 00:43:38;;;;;;;11.82;7.22;;;;;;;16.72;67.50;98752.09;3096974;28;20665;-61
2022/01/07 00:45:10;;;;;;;;;;;;;;;16.71;67.64;98763.81;3097545;28;20075;-60
2022/01/07 00:46:42;;;;;;;9.90;5.85;;;;;;;16.71;67.60;98754.97;3100862;28;19948;-63
2022/01/07 00:48:15;;;;;;;9.65;6.55;;;;;;;16.70;67.59;98759.50;3098799;28;20054;-61
2022/01/07 00:49:47;;;;;;;13.55;6.63;;;;;;;16.71;67.52;98768.34;3101330;28;20678;-60
2022/01/07 00:51:19;;;;;;;9.60;5.95;;;;;;;16.69;67.44;98765.88;3099892;28;20153;-62
2022/01/07 00:52:51;;;;;;;11.68;5.60;;;;;;;16.67;67.54;98767.91;3098521;28;20042;-60
2022/01/07 00:54:22;;;;;;;13.73;6.50;;;;;;;16.67;67.50;98762.56;3099199;28;20054;-61
2022/01/07 00:55:53;;;;;;;15.90;7.17;;;;;;;16.67;67.42;98767.09;3099077;28;20042;-61
2022/01/07 00:57:25;;;;;;;12.45;7.63;;;;;;;16.66;67.55;98774.28;3097248;28;20285;-60
2022/01/07 00:58:57;;;;;;;10.82;6.03;;;;;;;16.65;67.56;98763.75;3099141;28;20050;-61
2022/01/07 01:00:29;;;;;;;11.25;7.00;;;;;;;16.63;67.53;98766.63;3098556;28;20676;-62
2022/01/07 01:02:01;;;;;;;13.27;6.57;;;;;;;16.62;67.80;98764.97;3098785;28;20042;-62
2022/01/07 01:03:35;;;;;;;9.80;6.35;;;;;;;16.61;67.76;98774.03;3099571;28;20093;-61
2022/01/07 01:05:08;;;;;;;8.80;6.05;;;;;;;16.62;67.62;98766.81;3098975;28;20042;-60
2022/01/07 01:06:41;;;;;;;11.00;6.10;;;;;;;16.62;67.68;98773.00;3101485;28;20050;-60
2022/01/07 01:08:13;;;;;;;7.85;5.28;;;;;;;16.60;67.80;98775.03;3100542;28;20052;-60
2022/01/07 01:09:45;;;;;;;11.57;6.00;;;;;;;16.61;67.64;98778.56;3100522;28;20050;-61
2022/01/07 01:11:17;;;;;;;10.85;5.88;;;;;;;16.58;67.72;98769.03;3095702;28;20204;-62
2022/01/07 01:12:49;;;;;;;9.25;6.15;;;;;;;16.58;67.64;98784.28;3100462;28;20057;-60
2022/01/07 01:14:21;;;;;;;8.57;5.35;;;;;;;16.56;67.81;98776.41;3099577;28;20374;-59
2022/01/07 01:15:54;;;;;;;8.80;5.53;;;;;;;16.56;67.53;98775.59;3091709;28;20045;-61
2022/01/07 01:17:26;;;;;;;9.57;5.60;;;;;;;16.56;67.61;98783.63;3095790;28;20520;-62
2022/01/07 01:19:00;;;;;;;9.95;5.45;;;;;;;16.53;67.70;98780.31;3099249;28;20838;-61
2022/01/07 01:20:32;;;;;;;8.45;6.50;;;;;;;16.51;67.68;98784.19;3099402;28;20870;-59
2022/01/07 01:22:05;;;;;;;10.27;6.28;;;;;;;16.49;67.57;98775.50;3099002;28;20049;-60
2022/01/07 01:23:38;;;;;;;9.90;5.78;;;;;;;16.49;67.72;98775.50;3094073;28;20054;-61
2022/01/07 01:25:11;;;;;;;8.98;5.93;;;;;;;16.48;67.68;98768.50;3095451;28;20078;-61
2022/01/07 01:26:42;;;;;;;9.05;6.10;;;;;;;16.46;67.74;98781.22;3089902;28;20050;-62
2022/01/07 01:28:14;;;;;;;11.18;5.35;;;;;;;16.46;67.79;98783.91;3094961;28;20070;-61
2022/01/07 01:29:46;;;;;;;9.50;5.88;;;;;;;16.45;67.94;98779.56;3096268;28;20057;-61
2022/01/07 01:31:18;;;;;;;8.60;5.25;;;;;;;16.44;67.78;98783.28;3099312;28;20096;-61
2022/01/07 01:32:50;;;;;;;8.77;4.95;;;;;;;16.43;67.92;98776.25;3102408;28;20064;-61
2022/01/07 01:34:24;;;;;;;10.55;5.53;;;;;;;16.43;67.88;98773.56;3096919;28;20048;-60
2022/01/07 01:35:55;;;;;;;8.25;4.78;;;;;;;16.41;67.92;98780.94;3099109;28;20085;-61
2022/01/07 01:37:29;;;;;;;9.55;5.35;;;;;;;16.41;67.78;98788.97;3097383;28;20060;-62
2022/01/07 01:39:01;;;;;;;10.82;5.53;;;;;;;16.41;67.72;98788.97;3096093;28;20785;-62
2022/01/07 01:40:33;;;;;;;7.95;5.50;;;;;;;16.38;67.87;98779.50;3097912;28;20038;-60
2022/01/07 01:42:05;;;;;;;9.57;5.78;;;;;;;16.38;67.94;98779.50;3099652;28;21065;-60
2022/01/07 01:43:37;;;;;;;9.55;5.32;;;;;;;16.36;67.92;98778.03;3091653;28;22741;-60
2022/01/07 01:45:11;;;;;;;8.82;5.50;;;;;;;16.36;67.85;98776.16;3093785;28;20042;-58
2022/01/07 01:46:43;;;;;;;7.97;5.53;;;;;;;16.35;68.06;98776.34;3097567;28;20050;-61
2022/01/07 01:48:15;;;;;;;8.25;5.72;;;;;;;16.34;67.72;98772.00;3096608;28;20045;-59
2022/01/07 01:49:49;;;;;;;8.70;4.40;;;;;;;16.32;67.80;98780.22;3099138;28;21169;-59
2022/01/07 01:51:21;;;;;;;7.43;4.88;;;;;;;16.31;67.57;98776.72;3095787;28;20053;-61
2022/01/07 01:52:56;;;;;;;9.15;5.50;;;;;;;16.31;67.91;98775.88;3098531;28;20084;-61
2022/01/07 01:54:28;;;;;;;7.53;4.65;;;;;;;16.29;67.75;98769.88;3097548;28;20049;-61
2022/01/07 01:56:00;;;;;;;7.55;4.40;;;;;;;16.28;67.83;98779.75;3100303;28;20054;-61
2022/01/07 01:57:32;;;;;;;7.85;4.90;;;;;;;16.26;67.97;98776.44;3097606;28;20054;-59
2022/01/07 01:59:04;;;;;;;7.20;4.97;;;;;;;16.26;67.78;98775.59;3095546;28;20104;-60
2022/01/07 02:00:36;;;;;;;9.98;5.50;;;;;;;16.25;67.76;98779.31;3097514;28;20065;-61
2022/01/07 02:02:08;;;;;;;8.32;4.35;;;;;;;16.25;67.82;98784.66;3091497;28;20496;-60
2022/01/07 02:03:40;;;;;;;6.40;4.60;;;;;;;16.24;67.91;98778.47;3098925;28;20050;-59
2022/01/07 02:05:14;;;;;;;6.25;4.40;;;;;;;16.23;67.83;98782.16;3099381;28;20582;-61
2022/01/07 02:06:46;;;;;;;7.55;4.28;;;;;;;16.21;67.93;98772.66;3099553;28;20050;-61
2022/01/07 02:08:18;;;;;;;7.22;3.95;;;;;;;16.18;68.05;98773.84;3094709;28;20073;-60
2022/01/07 02:09:50;;;;;;;8.15;3.95;;;;;;;16.18;67.95;98781.88;3098233;28;20471;-59
2022/01/07 02:11:21;;;;;;;6.85;3.97;;;;;;;16.18;67.88;98783.72;3096440;28;20205;-60
2022/01/07 02:12:54;;;;;;;7.35;5.15;;;;;;;16.19;67.95;98785.41;3095732;28;20042;-60
2022/01/07 02:14:26;;;;;;;6.82;4.32;;;;;;;16.16;67.95;98775.03;3097714;28;20038;-60
2022/01/07 02:15:58;;;;;;;6.53;4.13;;;;;;;16.14;68.08;98775.25;3098129;28;20416;-60
2022/01/07 02:17:30;;;;;;;7.15;4.88;;;;;;;16.13;68.00;98776.28;3095069;28;20042;-61
2022/01/07 02:19:02;;;;;;;7.82;3.92;;;;;;;16.13;67.89;98773.59;3094800;28;20108;-61
2022/01/07 02:20:35;;;;;;;5.72;3.53;;;;;;;16.12;67.97;98774.59;3098748;28;20045;-61
2022/01/07 02:22:06;;;;;;;6.80;3.78;;;;;;;16.11;68.02;98775.63;3097298;28;20042;-60
2022/01/07 02:23:38;;;;;;;6.93;4.40;;;;;;;16.12;67.99;98774.59;3096527;28;20046;-60
2022/01/07 02:25:11;;;;;;;7.15;4.13;;;;;;;16.10;67.99;98771.25;3095955;28;20057;-62
2022/01/07 02:26:43;;;;;;;9.52;4.43;;;;;;;16.08;67.96;98784.84;3096523;28;20440;-60
2022/01/07 02:28:15;;;;;;;7.55;4.15;;;;;;;16.08;68.04;98773.31;3095825;28;20054;-60
2022/01/07 02:29:49;;;;;;;4.78;3.05;;;;;;;16.08;67.93;98767.97;3100305;28;20057;-62
2022/01/07 02:31:21;;;;;;;9.13;4.30;;;;;;;16.05;68.17;98771.81;3100792;28;20053;-60
2022/01/07 02:32:53;;;;;;;8.18;4.50;;;;;;;16.05;68.08;98763.81;3097016;28;20046;-60
2022/01/07 02:34:25;;;;;;;5.97;4.07;;;;;;;16.04;68.05;98772.00;3096053;28;20053;-60
2022/01/07 02:35:58;;;;;;;6.32;4.38;;;;;;;16.02;68.01;98774.88;3098137;28;20054;-61
2022/01/07 02:37:30;;;;;;;5.90;3.72;;;;;;;16.01;68.31;98778.53;3098583;28;20042;-60
2022/01/07 02:39:03;;;;;;;14.75;4.43;;;;;;;16.01;68.04;98777.72;3097500;28;21043;-61
2022/01/07 02:40:35;;;;;;;5.80;3.60;;;;;;;16.01;68.23;98770.53;3097837;28;20058;-60
2022/01/07 02:42:08;;;;;;;7.15;3.88;;;;;;;15.99;68.17;98767.22;3096673;28;20042;-60
2022/01/07 02:43:40;;;;;;;6.47;3.58;;;;;;;16.00;68.28;98766.19;3097346;28;20062;-61
2022/01/07 02:45:14;;;;;;;7.55;3.20;;;;;;;15.98;68.08;98759.38;3097752;28;20366;-65
2022/01/07 02:46:46;;;;;;;4.78;3.03;;;;;;;15.96;68.32;98764.88;3099414;28;20066;-62
2022/01/07 02:48:18;;;;;;;5.95;3.42;;;;;;;15.97;68.14;98768.41;3098112;28;20160;-62
2022/01/07 02:49:50;;;;;;;5.75;3.13;;;;;;;15.95;68.23;98765.91;3102159;28;20098;-61
2022/01/07 02:51:23;;;;;;;5.32;2.83;;;;;;;15.95;68.21;98767.75;3097812;28;20116;-60
2022/01/07 02:52:56;;;;;;;6.15;4.00;;;;;;;15.94;68.22;98761.59;3098640;28;20066;-59
2022/01/07 02:54:28;;;;;;;5.53;3.70;;;;;;;15.93;68.15;98761.75;3096394;28;20062;-61
2022/01/07 02:56:00;;;;;;;7.22;3.40;;;;;;;15.91;68.15;98767.31;3095866;28;20590;-62
2022/01/07 02:57:32;;;;;;;5.03;2.95;;;;;;;15.91;68.16;98763.78;3094620;28;20066;-59
2022/01/07 02:59:05;;;;;;;5.80;3.33;;;;;;;15.89;68.23;98761.28;3097695;28;20133;-61
2022/01/07 03:00:37;;;;;;;6.97;3.45;;;;;;;15.90;68.33;98764.78;3096652;28;20041;-59
2022/01/07 03:02:09;;;;;;;5.20;2.72;;;;;;;15.88;68.10;98767.66;3099782;28;20042;-61
2022/01/07 03:03:41;;;;;;;4.95;2.60;;;;;;;15.89;68.06;98773.84;3098965;28;20053;-59
2022/01/07 03:05:14;;;;;;;6.60;3.20;;;;;;;15.86;68.20;98767.84;3098400;28;20050;-60
2022/01/07 03:06:47;;;;;;;6.25;2.38;;;;;;;15.85;67.86;98774.22;3096331;28;20057;-62
2022/01/07 03:08:19;;;;;;;10.38;3.45;;;;;;;15.84;68.13;98777.88;3095300;28;20053;-61
2022/01/07 03:09:51;;;;;;;4.05;3.15;;;;;;;15.84;68.30;98764.50;3098229;28;20416;-61
2022/01/07 03:11:22;;;;;;;5.32;3.35;;;;;;;15.83;68.16;98765.53;3097894;28;20050;-60
2022/01/07 03:12:55;;;;;;;5.85;3.78;;;;;;;15.81;68.19;98772.91;3099555;28;20057;-62
2022/01/07 03:14:27;;;;;;;5.00;3.42;;;;;;;15.81;68.35;98775.56;3097409;28;20150;-60
2022/01/07 03:15:59;;;;;;;6.00;2.60;;;;;;;15.84;68.32;98782.41;3099318;28;20058;-60
2022/01/07 03:17:30;;;;;;;8.80;4.00;;;;;;;15.88;68.34;98788.22;3099077;28;20057;-63
2022/01/07 03:19:02;;;;;;;3.67;3.00;;;;;;;15.88;68.49;98780.19;3100777;28;20522;-61
2022/01/07 03:20:38;;;;;;;6.90;3.60;;;;;;;15.88;68.50;98782.84;3101358;28;20336;-60
2022/01/07 03:22:11;;;;;;;3.88;2.50;;;;;;;15.91;68.48;98779.81;3103189;28;20110;-61
2022/01/07 03:23:43;;;;;;;5.55;3.28;;;;;;;15.92;68.55;98782.31;3098469;28;20058;-60
2022/01/07 03:25:15;;;;;;;4.18;2.90;;;;;;;15.94;68.59;98784.84;3091988;28;20049;-60
2022/01/07 03:26:47;;;;;;;7.15;3.58;;;;;;;15.94;68.62;98782.97;3102414;28;20050;-61
2022/01/07 03:28:19;;;;;;;4.15;2.92;;;;;;;15.93;68.91;98785.81;3097540;28;20042;-60
2022/01/07 03:29:51;;;;;;;2.88;2.25;;;;;;;15.94;68.84;98771.47;3098928;28;20056;-60
2022/01/07 03:31:23;;;;;;;4.68;3.08;;;;;;;15.96;68.81;98772.09;3099328;28;20046;-60
2022/01/07 03:32:55;;;;;;;3.72;2.45;;;;;;;15.97;68.79;98776.44;3102692;28;20054;-60
2022/01/07 03:34:27;;;;;;;5.53;2.50;;;;;;;15.98;68.76;98778.09;3100778;28;20043;-62
2022/01/07 03:35:59;;;;;;;4.68;2.53;;;;;;;15.97;68.92;98776.44;3099175;28;20054;-61
2022/01/07 03:37:32;;;;;;;5.97;2.53;;;;;;;15.98;68.89;98778.09;3099395;28;20077;-60
2022/01/07 03:39:04;;;;;;;4.32;2.92;;;;;;;15.98;68.67;98778.91;3097315;28;20073;-62
2022/01/07 03:40:37;;;;;;;7.00;2.70;;;;;;;15.99;68.90;98780.59;3096215;28;20061;-62
2022/01/07 03:42:09;;;;;;;3.50;2.20;;;;;;;15.98;68.70;98780.75;3097586;28;20638;-62
2022/01/07 03:43:41;;;;;;;2.80;2.22;;;;;;;15.99;68.66;98785.09;3096722;28;20050;-59
2022/01/07 03:45:14;;;;;;;6.00;2.80;;;;;;;16.00;68.65;98781.41;3099425;28;20068;-59
2022/01/07 03:46:46;;;;;;;4.57;2.80;;;;;;;16.01;68.62;98791.91;3100068;28;20060;-62
2022/01/07 03:48:18;;;;;;;2.47;1.95;;;;;;;16.01;68.64;98783.06;3098903;28;20608;-63
2022/01/07 03:49:50;;;;;;;5.05;2.50;;;;;;;16.00;68.70;98786.78;3103080;28;20049;-61
2022/01/07 03:51:22;;;;;;;4.03;2.40;;;;;;;16.00;68.67;98787.59;3099315;28;20049;-61
2022/01/07 03:52:57;;;;;;;5.03;2.20;;;;;;;16.01;68.70;98783.06;3099417;28;20070;-60
2022/01/07 03:54:28;;;;;;;3.83;2.20;;;;;;;16.00;68.69;98786.78;3096073;28;20795;-62
2022/01/07 03:56:00;;;;;;;2.97;2.13;;;;;;;16.00;68.64;98786.78;3099150;28;20211;-60
2022/01/07 03:57:32;;;;;;;4.05;2.10;;;;;;;15.99;68.58;98785.94;3096234;28;20084;-61
2022/01/07 03:59:05;;;;;;;7.30;2.55;;;;;;;15.98;68.49;98784.25;3099164;28;20054;-60
2022/01/07 04:00:40;;;;;;;3.53;2.78;;;;;;;15.99;68.30;98782.41;3093872;28;20057;-61
2022/01/07 04:02:11;;;;;;;3.92;2.35;;;;;;;15.98;68.33;98778.09;3098554;28;20046;-64
2022/01/07 04:03:43;;;;;;;4.25;2.47;;;;;;;15.97;68.47;98787.97;3097100;28;20057;-60
2022/01/07 04:05:16;;;;;;;4.90;2.65;;;;;;;15.97;68.38;98784.47;3094200;28;20547;-60
2022/01/07 04:06:48;;;;;;;3.13;2.05;;;;;;;15.96;68.34;98775.59;3099385;28;20053;-60
2022/01/07 04:08:21;;;;;;;5.45;2.50;;;;;;;15.96;68.62;98785.47;3097465;28;20049;-61
2022/01/07 04:09:53;;;;;;;3.08;1.98;;;;;;;15.96;68.60;98791.63;3100402;28;20375;-62
2022/01/07 04:11:25;;;;;;;4.43;2.72;;;;;;;15.95;68.43;98783.81;3096687;28;20104;-60
2022/01/07 04:12:57;;;;;;;7.38;2.08;;;;;;;15.94;68.54;98779.47;3095906;28;20105;-60
2022/01/07 04:14:29;;;;;;;2.70;2.17;;;;;;;15.95;68.52;98784.63;3096256;28;20049;-60
2022/01/07 04:16:01;;;;;;;4.40;2.50;;;;;;;15.95;68.47;98783.81;3101878;28;20058;-61
2022/01/07 04:17:33;;;;;;;2.80;2.00;;;;;;;15.96;68.31;98782.78;3100334;28;21102;-61
2022/01/07 04:19:04;;;;;;;4.15;2.30;;;;;;;15.95;68.34;98783.81;3098495;28;20488;-61
2022/01/07 04:20:37;;;;;;;3.50;1.80;;;;;;;15.94;68.29;98782.16;3099112;28;20066;-61
2022/01/07 04:22:09;;;;;;;3.25;1.67;;;;;;;15.93;68.36;98786.66;3097479;28;20053;-61
2022/01/07 04:23:42;;;;;;;3.47;2.00;;;;;;;15.93;68.28;98783.16;3099512;28;20054;-62
2022/01/07 04:25:17;;;;;;;3.70;2.28;;;;;;;15.93;68.30;98791.19;3098761;28;20046;-58
2022/01/07 04:26:49;;;;;;;3.55;1.92;;;;;;;15.92;68.43;98792.19;3100814;28;20072;-57
2022/01/07 04:28:21;;;;;;;4.85;2.70;;;;;;;15.91;68.39;98794.06;3096746;28;20049;-58
2022/01/07 04:29:53;;;;;;;3.08;1.90;;;;;;;15.91;68.20;98793.19;3099693;28;20456;-58
2022/01/07 04:31:25;;;;;;;6.55;2.20;;;;;;;15.90;68.32;98789.69;3094061;28;20046;-58
2022/01/07 04:32:57;;;;;;;3.17;2.17;;;;;;;15.89;68.36;98790.72;3099697;28;20052;-58
2022/01/07 04:34:29;;;;;;;3.83;2.10;;;;;;;15.89;68.20;98790.72;3095000;28;20045;-58
2022/01/07 04:36:01;;;;;;;4.20;2.30;;;;;;;15.88;68.20;98788.22;3099381;28;20061;-57
2022/01/07 04:37:34;;;;;;;4.57;2.08;;;;;;;15.89;68.32;98788.03;3098199;28;20053;-58
2022/01/07 04:39:07;;;;;;;3.75;1.88;;;;;;;15.88;68.44;98788.22;3100220;28;20053;-58
2022/01/07 04:40:39;;;;;;;3.60;2.03;;;;;;;15.86;68.22;98778.53;3095414;28;20050;-59
2022/01/07 04:42:11;;;;;;;2.90;1.85;;;;;;;15.85;68.35;98784.91;3098740;28;20600;-59
2022/01/07 04:43:43;;;;;;;4.45;2.50;;;;;;;15.84;68.35;98783.22;3095426;28;20092;-61
2022/01/07 04:45:15;;;;;;;4.05;2.03;;;;;;;15.84;68.26;98783.22;3099467;28;20132;-60
2022/01/07 04:46:47;;;;;;;3.30;1.80;;;;;;;15.83;68.48;98781.56;3102785;28;20054;-60
2022/01/07 04:48:19;;;;;;;2.08;1.70;;;;;;;15.83;68.32;98781.56;3100407;28;20046;-61
2022/01/07 04:49:51;;;;;;;4.93;2.40;;;;;;;15.84;68.36;98790.44;3095353;28;20738;-59
2022/01/07 04:51:23;;;;;;;4.43;2.20;;;;;;;15.84;68.33;98790.44;3099117;28;20053;-61
2022/01/07 04:52:55;;;;;;;3.03;1.80;;;;;;;15.83;67.98;98792.28;3099712;28;20194;-61
2022/01/07 04:54:29;;;;;;;3.38;1.98;;;;;;;15.83;68.18;98797.63;3098231;28;20042;-58
2022/01/07 04:56:01;;;;;;;2.78;1.83;;;;;;;15.82;68.35;98795.13;3102434;28;20042;-59
2022/01/07 04:57:31;;;;;;;4.38;2.30;;;;;;;15.81;68.18;98796.97;3091548;28;20094;-59
2022/01/07 04:59:03;;;;;;;3.75;1.80;;;;;;;15.80;68.32;98799.84;3089282;28;20516;-59
2022/01/07 05:00:36;;;;;;;4.32;2.70;;;;;;;15.79;68.16;98801.66;3095142;28;20045;-59
2022/01/07 05:02:07;;;;;;;2.17;1.60;;;;;;;15.78;68.37;98799.19;3100527;28;20126;-60
2022/01/07 05:03:39;;;;;;;5.72;1.90;;;;;;;15.77;68.50;98801.03;3096192;28;20046;-60
2022/01/07 05:05:12;;;;;;;7.70;2.20;;;;;;;15.78;68.42;98799.19;3098685;28;20046;-60
2022/01/07 05:06:47;;;;;;;4.53;1.75;;;;;;;15.77;68.26;98802.88;3084008;28;20050;-59
2022/01/07 05:08:19;;;;;;;5.07;1.60;;;;;;;15.80;68.66;98811.38;3084666;28;20163;-59
2022/01/07 05:09:52;;;;;;;7.15;1.80;;;;;;;15.85;68.86;98816.16;3089081;28;20948;-61
2022/01/07 05:11:24;;;;;;;3.15;1.85;;;;;;;15.92;68.81;98808.25;3084400;28;20056;-59
2022/01/07 05:12:56;;;;;;;3.85;1.40;;;;;;;15.97;68.81;98805.88;3086673;28;20054;-62
2022/01/07 05:14:28;;;;;;;10.05;2.58;;;;;;;16.01;68.85;98805.28;3085763;28;20061;-61
2022/01/07 05:16:00;;;;;;;3.17;1.73;;;;;;;16.09;68.60;98802.53;3081674;28;20105;-60
2022/01/07 05:17:32;;;;;;;3.30;1.67;;;;;;;16.15;68.64;98811.69;3084349;28;20050;-60
2022/01/07 05:19:04;;;;;;;2.05;1.55;;;;;;;16.22;68.40;98807.28;3088379;28;20046;-60
2022/01/07 05:20:36;;;;;;;3.70;1.80;;;;;;;16.26;68.27;98803.19;3086318;28;20058;-61
2022/01/07 05:22:08;;;;;;;2.60;1.52;;;;;;;16.31;68.13;98808.00;3087258;28;20070;-59
2022/01/07 05:23:40;;;;;;;2.88;1.25;;;;;;;16.36;68.21;98799.44;3083988;28;20062;-60
2022/01/07 05:25:16;;;;;;;2.88;1.58;;;;;;;16.39;68.09;98799.06;3084569;28;20047;-61
2022/01/07 05:26:48;;;;;;;2.13;1.35;;;;;;;16.43;68.03;98803.84;3086796;28;20133;-59
2022/01/07 05:28:20;;;;;;;1.55;1.38;;;;;;;16.47;67.92;98799.78;3087221;28;20067;-60
2022/01/07 05:29:51;;;;;;;3.92;2.50;;;;;;;16.51;67.93;98808.28;3084765;28;20047;-61
2022/01/07 05:31:25;;;;;;;2.55;1.65;;;;;;;16.53;67.79;98806.25;3083370;28;20409;-59
2022/01/07 05:32:56;;;;;;;2.53;1.33;;;;;;;16.56;67.66;98811.22;3076837;28;20047;-61
2022/01/07 05:34:28;;;;;;;2.25;1.55;;;;;;;16.59;67.78;98813.53;3085825;28;20054;-59
2022/01/07 05:36:00;;;;;;;2.60;1.58;;;;;;;16.62;67.55;98813.16;3083814;28;20054;-60
2022/01/07 05:37:32;;;;;;;2.30;1.35;;;;;;;16.63;67.58;98812.16;3084490;28;20113;-60
2022/01/07 05:39:05;;;;;;;5.78;1.80;;;;;;;16.64;67.61;98805.78;3083192;28;20049;-60
2022/01/07 05:40:38;;;;;;;1.92;1.08;;;;;;;16.67;67.48;98809.94;3087514;28;20054;-60
2022/01/07 05:42:10;;;;;;;4.03;1.23;;;;;;;16.68;67.35;98807.06;3085790;28;20046;-60
2022/01/07 05:43:43;;;;;;;4.82;1.42;;;;;;;16.70;67.36;98814.91;3089593;28;20571;-59
2022/01/07 05:45:15;;;;;;;2.33;1.83;;;;;;;16.70;67.36;98814.91;3084266;28;20057;-61
2022/01/07 05:46:47;;;;;;;2.38;1.45;;;;;;;16.72;67.31;98807.53;3086948;28;20050;-60
2022/01/07 05:48:19;;;;;;;2.13;1.60;;;;;;;16.73;67.23;98815.38;3086348;28;20050;-60
2022/01/07 05:49:51;;;;;;;2.25;1.48;;;;;;;16.73;67.17;98809.19;3080346;28;20051;-61
2022/01/07 05:51:23;;;;;;;2.40;1.73;;;;;;;16.75;67.17;98807.97;3086596;28;20567;-61
2022/01/07 05:52:54;;;;;;;2.08;1.10;;;;;;;16.77;67.11;98806.97;3085752;28;20054;-59
2022/01/07 05:54:26;;;;;;;2.00;1.23;;;;;;;16.77;67.13;98801.63;3086682;28;20046;-60
2022/01/07 05:55:59;;;;;;;1.77;1.48;;;;;;;16.79;67.05;98810.31;3084982;28;20058;-60
2022/01/07 05:57:31;;;;;;;2.45;1.33;;;;;;;16.79;67.05;98810.31;3085588;28;20054;-59
2022/01/07 05:59:04;;;;;;;2.30;1.17;;;;;;;16.79;67.30;98803.09;3086579;28;20051;-59
2022/01/07 06:00:36;;;;;;;3.00;1.50;;;;;;;16.80;67.03;98812.81;3084200;28;20042;-62
2022/01/07 06:02:08;;;;;;;3.17;1.25;;;;;;;16.80;67.09;98804.78;3085822;28;20055;-58
2022/01/07 06:03:40;;;;;;;1.38;1.20;;;;;;;16.81;67.02;98808.28;3085658;28;20055;-61
2022/01/07 06:05:12;;;;;;;2.30;1.60;;;;;;;16.80;66.93;98807.47;3084637;28;20594;-62
2022/01/07 06:06:44;;;;;;;1.55;0.88;;;;;;;16.82;67.00;98817.97;3087104;28;20144;-62
2022/01/07 06:08:16;;;;;;;2.65;1.10;;;;;;;16.81;66.87;98822.50;3084421;28;20046;-61
2022/01/07 06:09:48;;;;;;;3.47;1.98;;;;;;;16.84;66.98;98821.28;3082616;28;20567;-60
2022/01/07 06:11:21;;;;;;;2.08;1.30;;;;;;;16.84;67.33;98830.16;3084797;28;20049;-60
2022/01/07 06:12:53;;;;;;;3.58;1.30;;;;;;;16.85;67.32;98820.28;3086924;28;20054;-60
2022/01/07 06:14:26;;;;;;;1.55;1.20;;;;;;;16.85;67.41;98829.13;3095289;28;20049;-60
2022/01/07 06:15:58;;;;;;;1.75;1.20;;;;;;;16.86;67.31;98830.00;3099670;28;20574;-61
2022/01/07 06:17:31;;;;;;;6.68;1.55;;;;;;;16.88;66.84;98827.94;3097639;28;20050;-50
2022/01/07 06:19:03;;;;;;;6.28;2.30;;;;;;;16.94;66.24;98821.84;3097953;28;20140;-55
2022/01/07 06:20:34;;;;;;;5.32;1.30;;;;;;;16.98;66.18;98825.78;3099758;28;20050;-59
2022/01/07 06:22:06;;;;;;;3.80;1.52;;;;;;;17.01;66.10;98821.91;3098979;28;20417;-54
2022/01/07 06:23:38;;;;;;;4.13;1.80;;;;;;;16.97;65.99;98830.31;3098413;28;20046;-57
2022/01/07 06:25:10;;;;;;;1.67;0.93;;;;;;;16.94;66.16;98836.06;3096051;28;20069;-56
2022/01/07 06:26:43;;;;;;;4.85;2.35;;;;;;;16.92;66.40;98831.91;3090928;28;20050;-56
2022/01/07 06:28:16;;;;;;;8.68;1.40;;;;;;;16.89;66.50;98840.31;3093140;28;20081;-56
2022/01/07 06:29:47;;;;;;;3.38;1.77;;;;;;;16.88;66.39;98841.31;3092533;28;20124;-56
2022/01/07 06:31:19;;;;;;;2.20;1.10;;;;;;;16.87;66.39;98842.34;3092865;28;20730;-55
2022/01/07 06:32:52;;;;;;;1.70;0.85;;;;;;;16.86;66.40;98835.34;3095330;28;20077;-57
2022/01/07 06:34:24;;;;;;;9.93;1.58;;;;;;;16.88;66.23;98839.50;3090978;28;20045;-57
2022/01/07 06:35:55;;;;;;;4.22;1.30;;;;;;;16.88;66.05;98838.66;3090394;28;20201;-57
2022/01/07 06:37:27;;;;;;;3.95;2.20;;;;;;;16.85;66.25;98845.19;3096722;28;20591;-55
2022/01/07 06:38:59;;;;;;;2.28;1.30;;;;;;;16.84;66.37;98837.38;3091346;28;20089;-54
2022/01/07 06:40:31;;;;;;;2.47;1.35;;;;;;;16.83;66.48;98849.94;3085521;28;20050;-52
2022/01/07 06:42:05;;;;;;;3.35;1.77;;;;;;;16.83;66.27;98846.44;3094288;28;20046;-55
2022/01/07 06:43:37;;;;;;;1.80;1.10;;;;;;;16.83;66.39;98843.75;3096515;28;20058;-56
2022/01/07 06:45:09;;;;;;;9.70;1.77;;;;;;;16.81;66.35;98846.59;3094348;28;20065;-55
2022/01/07 06:46:42;;;;;;;2.72;1.00;;;;;;;16.81;66.27;98841.25;3097002;28;20049;-57
2022/01/07 06:48:14;;;;;;;2.53;1.20;;;;;;;16.80;66.36;98847.63;3095991;28;20609;-54
2022/01/07 06:49:46;;;;;;;3.40;0.95;;;;;;;16.82;66.29;98855.47;3093542;28;20500;-57
2022/01/07 06:51:18;;;;;;;2.40;1.30;;;;;;;16.81;66.30;98857.31;3100881;28;20057;-56
2022/01/07 06:52:49;;;;;;;7.05;1.30;;;;;;;16.80;66.25;98858.34;3097070;28;20101;-51
2022/01/07 06:54:21;;;;;;;2.00;1.02;;;;;;;16.80;66.38;98862.84;3095728;28;20050;-52
2022/01/07 06:55:53;;;;;;;1.17;0.95;;;;;;;16.80;66.41;98857.50;3100789;28;20050;-55
2022/01/07 06:57:27;;;;;;;1.75;1.40;;;;;;;16.80;66.52;98854.81;3099926;28;20105;-55
2022/01/07 06:58:59;;;;;;;2.17;1.00;;;;;;;16.80;66.33;98861.03;3103081;28;20054;-54
2022/01/07 07:00:31;;;;;;;1.80;1.02;;;;;;;16.81;66.44;98854.66;3102512;28;20508;-57
2022/01/07 07:02:03;;;;;;;2.42;1.45;;;;;;;16.83;66.44;98871.38;3097239;28;20077;-57
2022/01/07 07:03:36;;;;;;;3.85;2.38;;;;;;;16.82;66.29;98866.19;3098260;28;20058;-56
2022/01/07 07:05:08;;;;;;;2.95;1.60;;;;;;;16.81;66.30;98859.19;3096319;28;20129;-55
2022/01/07 07:06:40;;;;;;;1.70;0.88;;;;;;;16.81;66.32;98859.19;3099970;28;20735;-53
2022/01/07 07:08:12;;;;;;;4.30;1.23;;;;;;;16.81;66.36;98862.69;3100784;28;20061;-55
2022/01/07 07:09:44;;;;;;;1.90;1.20;;;;;;;16.82;66.45;98866.19;3099639;28;20050;-56
2022/01/07 07:11:15;;;;;;;6.18;1.50;;;;;;;16.81;66.48;98862.69;3094901;28;20935;-59
2022/01/07 07:12:49;;;;;;;2.00;1.13;;;;;;;16.81;66.31;98864.53;3100060;28;20451;-54